Betancuria — EAMH — position and weather

sailwx.info

Track history (hours):
 
Tides and Currents Weather Stations Pressure Air Temp Water Temp Dewpoint Dewpoint Depression Visibility Wind Speed Wind Dir Waves Ship Positions

Betancuria

Last reported at 2014-Oct-23 22:30 UTC. Time now 2014-Oct-24 23:08 UTC.
Position N 38°22' W 009°45'.

Length 141 m; draft 4.7 m.

Type: Ship. MMSI: 224471000.

Date/timePositionNaut miles runAvg speedWind from/ knotsBaromVisibWave heightAir tempDewpointWater temp
2014-Oct-23 22:30N 38°22' W 009°45'1110.7
2014-Oct-23 21:27N 38°11' W 009°43'1010.7
2014-Oct-23 20:33N 38°02' W 009°41'1110.9
2014-Oct-23 19:32N 37°51' W 009°38'1010.6
2014-Oct-23 18:33N 37°41' W 009°36'1110.9
2014-Oct-23 17:33N 37°30' W 009°33'8010.0
2014-Oct-23 09:33N 36°34' W 008°21'1111.2
2014-Oct-23 08:33N 36°31' W 008°07'1111.2
2014-Oct-23 07:33N 36°28' W 007°54'11611.6
2014-Oct-22 21:33N 35°58' W 005°35'10 9.6
2014-Oct-22 20:34N 35°59' W 005°24'7 6.8
2014-Oct-22 19:33N 35°54' W 005°18'0 0.0
2014-Oct-22 18:33N 35°54' W 005°18'0 0.0
2014-Oct-22 17:33N 35°54' W 005°18'0 0.0
2014-Oct-22 16:33N 35°54' W 005°18'0 0.1
2014-Oct-22 15:33N 35°54' W 005°18'1 0.7
2014-Oct-22 14:33N 35°54' W 005°18'0 0.3
2014-Oct-22 13:33N 35°55' W 005°18'21110.5
2014-Oct-21 17:33N 37°07' W 001°12'1211.7
2014-Oct-21 16:33N 37°15' W 001°01'1312.1
2014-Oct-21 15:30N 37°23' W 000°49'1212.1
2014-Oct-21 14:31N 37°31' W 000°38'1211.9
2014-Oct-21 13:33N 37°40' W 000°29'1212.2
2014-Oct-21 12:33N 37°50' W 000°20'1212.1
2014-Oct-21 11:34N 38°01' W 000°12'1212.1
2014-Oct-21 10:33N 38°11' W 000°04'1212.1
2014-Oct-21 09:32N 38°21' E 000°05'1212.5
2014-Oct-21 08:33N 38°31' E 000°13'1612.4
2014-Oct-21 07:15N 38°45' E 000°24'812.0
2014-Oct-21 06:33N 38°53' E 000°28'13512.0
2014-Oct-20 19:18N 40°56' E 001°40'1011.2
2014-Oct-20 18:26N 41°05' E 001°44'7 0.2
2014-Oct-19 12:16N 41°13' E 001°44'0 0.0
2014-Oct-18 16:04N 41°13' E 001°44'0 0.0
2014-Oct-18 15:31N 41°13' E 001°44'0 0.0
2014-Oct-18 14:28N 41°13' E 001°44'0 0.0
2014-Oct-18 13:31N 41°13' E 001°44'0 0.0
2014-Oct-18 12:31N 41°13' E 001°44'0 0.0
2014-Oct-18 11:31N 41°13' E 001°44'0 0.0
2014-Oct-18 10:28N 41°13' E 001°44'1 0.5
2014-Oct-18 08:18N 41°12' E 001°44'0 0.0
2014-Oct-18 07:24N 41°12' E 001°44'0 0.0
2014-Oct-18 06:24N 41°12' E 001°44'0 0.0
2014-Oct-18 05:24N 41°12' E 001°44'0 0.0
2014-Oct-18 04:30N 41°12' E 001°44'0 0.0
2014-Oct-18 03:33N 41°12' E 001°44'0 0.0
2014-Oct-18 02:30N 41°12' E 001°44'0 0.0
2014-Oct-18 01:18N 41°12' E 001°44'0 0.0
2014-Oct-18 00:30N 41°12' E 001°44'0 0.0
2014-Oct-17 23:30N 41°12' E 001°44'0 0.0
2014-Oct-17 22:30N 41°12' E 001°44'0 0.0
2014-Oct-17 20:24N 41°12' E 001°44'0 0.0
2014-Oct-17 19:30N 41°12' E 001°44'0 0.0
2014-Oct-17 17:30N 41°12' E 001°44'0 0.0
2014-Oct-17 16:33N 41°12' E 001°44'1 0.8
2014-Oct-17 15:33N 41°12' E 001°46'1110.6
2014-Oct-17 14:33N 41°12' E 001°60'1211.9
2014-Oct-17 13:33N 41°11' E 002°15'1312.6
2014-Oct-17 12:33N 41°11' E 002°32'1212.4
2014-Oct-17 11:33N 41°11' E 002°48'1212.1
2014-Oct-17 10:33N 41°12' E 003°04'1212.1
2014-Oct-17 09:32N 41°12' E 003°21'1111.7
2014-Oct-17 08:33N 41°13' E 003°36'1111.6
2014-Oct-17 07:33N 41°13' E 003°51'  
2014-Oct-14 03:21N 42°56' E 010°26'911.7
2014-Oct-14 02:33N 43°02' E 010°16'1212.1
2014-Oct-14 01:33N 43°10' E 010°04'1212.0
2014-Oct-14 00:33N 43°19' E 009°52'1211.7
2014-Oct-13 23:33N 43°28' E 009°43'1211.8
2014-Oct-13 22:33N 43°38' E 009°34'  
Track history (hours):
 
Tides and Currents Weather Stations Pressure Air Temp Water Temp Dewpoint Dewpoint Depression Visibility Wind Speed Wind Dir Waves Ship Positions

Betancuria

Last reported at 2014-Oct-23 22:30 UTC. Time now 2014-Oct-24 23:08 UTC.
Position N 38°22' W 009°45'.

Length 141 m; draft 4.7 m.

Type: Ship. MMSI: 224471000.

Date/timePositionNaut miles runAvg speedWind from/ knotsBaromVisibWave heightAir tempDewpointWater temp
2014-Oct-23 22:30N 38°22' W 009°45'1110.7
2014-Oct-23 21:27N 38°11' W 009°43'1010.7
2014-Oct-23 20:33N 38°02' W 009°41'1110.9
2014-Oct-23 19:32N 37°51' W 009°38'1010.6
2014-Oct-23 18:33N 37°41' W 009°36'1110.9
2014-Oct-23 17:33N 37°30' W 009°33'8010.0
2014-Oct-23 09:33N 36°34' W 008°21'1111.2
2014-Oct-23 08:33N 36°31' W 008°07'1111.2
2014-Oct-23 07:33N 36°28' W 007°54'11611.6
2014-Oct-22 21:33N 35°58' W 005°35'10 9.6
2014-Oct-22 20:34N 35°59' W 005°24'7 6.8
2014-Oct-22 19:33N 35°54' W 005°18'0 0.0
2014-Oct-22 18:33N 35°54' W 005°18'0 0.0
2014-Oct-22 17:33N 35°54' W 005°18'0 0.0
2014-Oct-22 16:33N 35°54' W 005°18'0 0.1
2014-Oct-22 15:33N 35°54' W 005°18'1 0.7
2014-Oct-22 14:33N 35°54' W 005°18'0 0.3
2014-Oct-22 13:33N 35°55' W 005°18'21110.5
2014-Oct-21 17:33N 37°07' W 001°12'1211.7
2014-Oct-21 16:33N 37°15' W 001°01'1312.1
2014-Oct-21 15:30N 37°23' W 000°49'1212.1
2014-Oct-21 14:31N 37°31' W 000°38'1211.9
2014-Oct-21 13:33N 37°40' W 000°29'1212.2
2014-Oct-21 12:33N 37°50' W 000°20'1212.1
2014-Oct-21 11:34N 38°01' W 000°12'1212.1
2014-Oct-21 10:33N 38°11' W 000°04'1212.1
2014-Oct-21 09:32N 38°21' E 000°05'1212.5
2014-Oct-21 08:33N 38°31' E 000°13'1612.4
2014-Oct-21 07:15N 38°45' E 000°24'812.0
2014-Oct-21 06:33N 38°53' E 000°28'13512.0
2014-Oct-20 19:18N 40°56' E 001°40'1011.2
2014-Oct-20 18:26N 41°05' E 001°44'7 0.2
2014-Oct-19 12:16N 41°13' E 001°44'0 0.0
2014-Oct-18 16:04N 41°13' E 001°44'0 0.0
2014-Oct-18 15:31N 41°13' E 001°44'0 0.0
2014-Oct-18 14:28N 41°13' E 001°44'0 0.0
2014-Oct-18 13:31N 41°13' E 001°44'0 0.0
2014-Oct-18 12:31N 41°13' E 001°44'0 0.0
2014-Oct-18 11:31N 41°13' E 001°44'0 0.0
2014-Oct-18 10:28N 41°13' E 001°44'1 0.5
2014-Oct-18 08:18N 41°12' E 001°44'0 0.0
2014-Oct-18 07:24N 41°12' E 001°44'0 0.0
2014-Oct-18 06:24N 41°12' E 001°44'0 0.0
2014-Oct-18 05:24N 41°12' E 001°44'0 0.0
2014-Oct-18 04:30N 41°12' E 001°44'0 0.0
2014-Oct-18 03:33N 41°12' E 001°44'0 0.0
2014-Oct-18 02:30N 41°12' E 001°44'0 0.0
2014-Oct-18 01:18N 41°12' E 001°44'0 0.0
2014-Oct-18 00:30N 41°12' E 001°44'0 0.0
2014-Oct-17 23:30N 41°12' E 001°44'0 0.0
2014-Oct-17 22:30N 41°12' E 001°44'0 0.0
2014-Oct-17 20:24N 41°12' E 001°44'0 0.0
2014-Oct-17 19:30N 41°12' E 001°44'0 0.0
2014-Oct-17 17:30N 41°12' E 001°44'0 0.0
2014-Oct-17 16:33N 41°12' E 001°44'1 0.8
2014-Oct-17 15:33N 41°12' E 001°46'1110.6
2014-Oct-17 14:33N 41°12' E 001°60'1211.9
2014-Oct-17 13:33N 41°11' E 002°15'1312.6
2014-Oct-17 12:33N 41°11' E 002°32'1212.4
2014-Oct-17 11:33N 41°11' E 002°48'1212.1
2014-Oct-17 10:33N 41°12' E 003°04'1212.1
2014-Oct-17 09:32N 41°12' E 003°21'1111.7
2014-Oct-17 08:33N 41°13' E 003°36'1111.6
2014-Oct-17 07:33N 41°13' E 003°51'  
2014-Oct-14 03:21N 42°56' E 010°26'911.7
2014-Oct-14 02:33N 43°02' E 010°16'1212.1
2014-Oct-14 01:33N 43°10' E 010°04'1212.0
2014-Oct-14 00:33N 43°19' E 009°52'1211.7
2014-Oct-13 23:33N 43°28' E 009°43'1211.8
2014-Oct-13 22:33N 43°38' E 009°34'  

Dump ship's entire track history